sensor_id;sensor_type;location;lat;lon;timestamp;temperature;humidity
59146;DHT22;44928;53.074;6.646;2022-12-11T00:00:33;-0.60;99.90
59146;DHT22;44928;53.074;6.646;2022-12-11T00:02:59;-0.50;99.90
59146;DHT22;44928;53.074;6.646;2022-12-11T00:05:25;-0.50;99.90
59146;DHT22;44928;53.074;6.646;2022-12-11T00:07:50;-0.50;99.90
59146;DHT22;44928;53.074;6.646;2022-12-11T00:10:16;-0.50;99.90
59146;DHT22;44928;53.074;6.646;2022-12-11T00:12:42;-0.50;99.90
59146;DHT22;44928;53.074;6.646;2022-12-11T00:15:08;-0.50;99.90
59146;DHT22;44928;53.074;6.646;2022-12-11T00:17:34;-0.50;99.90
59146;DHT22;44928;53.074;6.646;2022-12-11T00:20:00;-0.50;99.90
59146;DHT22;44928;53.074;6.646;2022-12-11T00:22:25;-0.40;99.90
59146;DHT22;44928;53.074;6.646;2022-12-11T00:24:51;-0.40;99.90
59146;DHT22;44928;53.074;6.646;2022-12-11T00:27:17;-0.40;99.90
59146;DHT22;44928;53.074;6.646;2022-12-11T00:29:43;-0.40;99.90
59146;DHT22;44928;53.074;6.646;2022-12-11T00:32:09;-0.30;99.90
59146;DHT22;44928;53.074;6.646;2022-12-11T00:34:34;-0.30;99.90
59146;DHT22;44928;53.074;6.646;2022-12-11T00:37:00;-0.20;99.90
59146;DHT22;44928;53.074;6.646;2022-12-11T00:39:26;-0.20;99.90
59146;DHT22;44928;53.074;6.646;2022-12-11T00:41:51;-0.20;99.90
59146;DHT22;44928;53.074;6.646;2022-12-11T00:44:17;-0.10;99.90
59146;DHT22;44928;53.074;6.646;2022-12-11T00:46:43;-0.20;99.90
59146;DHT22;44928;53.074;6.646;2022-12-11T00:49:09;-0.20;99.90
59146;DHT22;44928;53.074;6.646;2022-12-11T00:51:35;-0.20;99.90
59146;DHT22;44928;53.074;6.646;2022-12-11T00:54:00;-0.20;99.90
59146;DHT22;44928;53.074;6.646;2022-12-11T00:56:26;-0.20;99.90
59146;DHT22;44928;53.074;6.646;2022-12-11T00:58:52;-0.20;99.90
59146;DHT22;44928;53.074;6.646;2022-12-11T01:01:20;-0.10;99.90
59146;DHT22;44928;53.074;6.646;2022-12-11T01:03:47;-0.10;99.90
59146;DHT22;44928;53.074;6.646;2022-12-11T01:06:15;-0.10;99.90
59146;DHT22;44928;53.074;6.646;2022-12-11T01:08:42;-0.10;99.90
59146;DHT22;44928;53.074;6.646;2022-12-11T01:11:10;-0.10;99.90
59146;DHT22;44928;53.074;6.646;2022-12-11T01:13:37;0.00;99.90
59146;DHT22;44928;53.074;6.646;2022-12-11T01:16:09;0.00;99.90
59146;DHT22;44928;53.074;6.646;2022-12-11T01:18:35;0.10;99.90
59146;DHT22;44928;53.074;6.646;2022-12-11T01:21:09;0.10;99.90
59146;DHT22;44928;53.074;6.646;2022-12-11T01:23:35;0.10;99.90
59146;DHT22;44928;53.074;6.646;2022-12-11T01:26:07;0.10;99.90
59146;DHT22;44928;53.074;6.646;2022-12-11T01:28:33;0.10;99.90
59146;DHT22;44928;53.074;6.646;2022-12-11T01:30:59;0.10;99.90
59146;DHT22;44928;53.074;6.646;2022-12-11T01:33:25;0.10;99.90
59146;DHT22;44928;53.074;6.646;2022-12-11T01:35:50;0.10;99.90
59146;DHT22;44928;53.074;6.646;2022-12-11T01:38:16;0.20;99.90
59146;DHT22;44928;53.074;6.646;2022-12-11T01:40:47;0.20;99.90
59146;DHT22;44928;53.074;6.646;2022-12-11T01:43:13;0.10;99.90
59146;DHT22;44928;53.074;6.646;2022-12-11T01:45:41;0.20;99.90
59146;DHT22;44928;53.074;6.646;2022-12-11T01:48:18;0.20;99.90
59146;DHT22;44928;53.074;6.646;2022-12-11T01:50:57;0.20;99.90
59146;DHT22;44928;53.074;6.646;2022-12-11T01:53:30;0.30;99.90
59146;DHT22;44928;53.074;6.646;2022-12-11T01:55:58;0.30;99.90
59146;DHT22;44928;53.074;6.646;2022-12-11T01:58:28;0.40;99.90
59146;DHT22;44928;53.074;6.646;2022-12-11T02:00:56;0.30;99.90
59146;DHT22;44928;53.074;6.646;2022-12-11T02:03:23;0.40;99.90
59146;DHT22;44928;53.074;6.646;2022-12-11T02:05:49;0.40;99.90
59146;DHT22;44928;53.074;6.646;2022-12-11T02:08:15;0.40;99.90
59146;DHT22;44928;53.074;6.646;2022-12-11T02:13:25;0.40;99.90
59146;DHT22;44928;53.074;6.646;2022-12-11T02:15:59;0.40;99.90
59146;DHT22;44928;53.074;6.646;2022-12-11T02:18:38;0.40;99.90
59146;DHT22;44928;53.074;6.646;2022-12-11T02:21:10;0.40;99.90
59146;DHT22;44928;53.074;6.646;2022-12-11T02:24:03;0.40;99.90
59146;DHT22;44928;53.074;6.646;2022-12-11T02:29:27;0.50;99.90
59146;DHT22;44928;53.074;6.646;2022-12-11T02:32:12;0.50;99.90
59146;DHT22;44928;53.074;6.646;2022-12-11T02:34:55;0.50;99.90
59146;DHT22;44928;53.074;6.646;2022-12-11T02:37:26;0.50;99.90
59146;DHT22;44928;53.074;6.646;2022-12-11T02:39:54;0.50;99.90
59146;DHT22;44928;53.074;6.646;2022-12-11T02:42:24;0.50;99.90
59146;DHT22;44928;53.074;6.646;2022-12-11T02:44:53;0.50;99.90
59146;DHT22;44928;53.074;6.646;2022-12-11T02:47:22;0.60;99.90
59146;DHT22;44928;53.074;6.646;2022-12-11T02:49:51;0.60;99.90
59146;DHT22;44928;53.074;6.646;2022-12-11T02:52:21;0.60;99.90
59146;DHT22;44928;53.074;6.646;2022-12-11T02:54:50;0.60;99.90
59146;DHT22;44928;53.074;6.646;2022-12-11T03:00:08;0.50;99.90
59146;DHT22;44928;53.074;6.646;2022-12-11T03:02:35;0.40;99.90
59146;DHT22;44928;53.074;6.646;2022-12-11T03:05:01;0.40;99.90
59146;DHT22;44928;53.074;6.646;2022-12-11T03:07:32;0.40;99.90
59146;DHT22;44928;53.074;6.646;2022-12-11T03:09:58;0.40;99.90
59146;DHT22;44928;53.074;6.646;2022-12-11T03:12:29;0.40;99.90
59146;DHT22;44928;53.074;6.646;2022-12-11T03:14:58;0.50;99.90
59146;DHT22;44928;53.074;6.646;2022-12-11T03:17:37;0.50;99.90
59146;DHT22;44928;53.074;6.646;2022-12-11T03:20:08;0.50;99.90
59146;DHT22;44928;53.074;6.646;2022-12-11T03:22:45;0.60;99.90
59146;DHT22;44928;53.074;6.646;2022-12-11T03:25:21;0.60;99.90
59146;DHT22;44928;53.074;6.646;2022-12-11T03:28:43;0.70;99.90
59146;DHT22;44928;53.074;6.646;2022-12-11T03:30:45;0.70;99.90
59146;DHT22;44928;53.074;6.646;2022-12-11T03:33:22;0.70;99.90
59146;DHT22;44928;53.074;6.646;2022-12-11T03:35:57;0.70;99.90
59146;DHT22;44928;53.074;6.646;2022-12-11T03:38:38;0.80;99.90
59146;DHT22;44928;53.074;6.646;2022-12-11T03:41:06;0.80;99.90
59146;DHT22;44928;53.074;6.646;2022-12-11T03:43:34;0.80;99.90
59146;DHT22;44928;53.074;6.646;2022-12-11T03:46:01;0.80;99.90
59146;DHT22;44928;53.074;6.646;2022-12-11T03:48:31;0.80;99.90
59146;DHT22;44928;53.074;6.646;2022-12-11T03:50:58;0.70;99.90
59146;DHT22;44928;53.074;6.646;2022-12-11T03:53:25;0.70;99.90
59146;DHT22;44928;53.074;6.646;2022-12-11T03:55:53;0.70;99.90
59146;DHT22;44928;53.074;6.646;2022-12-11T03:58:22;0.70;99.90
59146;DHT22;44928;53.074;6.646;2022-12-11T04:00:48;0.70;99.90
59146;DHT22;44928;53.074;6.646;2022-12-11T04:03:14;0.70;99.90
59146;DHT22;44928;53.074;6.646;2022-12-11T04:05:44;0.70;99.90
59146;DHT22;44928;53.074;6.646;2022-12-11T04:08:10;0.70;99.90
59146;DHT22;44928;53.074;6.646;2022-12-11T04:10:36;0.70;99.90
59146;DHT22;44928;53.074;6.646;2022-12-11T04:13:02;0.70;99.90
59146;DHT22;44928;53.074;6.646;2022-12-11T04:15:27;0.80;99.90
59146;DHT22;44928;53.074;6.646;2022-12-11T04:17:53;0.80;99.90
59146;DHT22;44928;53.074;6.646;2022-12-11T04:20:37;0.80;99.90
59146;DHT22;44928;53.074;6.646;2022-12-11T04:23:22;0.80;99.90
59146;DHT22;44928;53.074;6.646;2022-12-11T04:26:08;0.80;99.90
59146;DHT22;44928;53.074;6.646;2022-12-11T04:28:35;0.80;99.90
59146;DHT22;44928;53.074;6.646;2022-12-11T04:31:01;0.80;99.90
59146;DHT22;44928;53.074;6.646;2022-12-11T04:33:27;0.90;99.90
59146;DHT22;44928;53.074;6.646;2022-12-11T04:35:53;0.90;99.90
59146;DHT22;44928;53.074;6.646;2022-12-11T04:38:19;0.90;99.90
59146;DHT22;44928;53.074;6.646;2022-12-11T04:40:44;0.90;99.90
59146;DHT22;44928;53.074;6.646;2022-12-11T04:43:10;0.80;99.90
59146;DHT22;44928;53.074;6.646;2022-12-11T04:45:36;0.80;99.90
59146;DHT22;44928;53.074;6.646;2022-12-11T04:48:02;0.80;99.90
59146;DHT22;44928;53.074;6.646;2022-12-11T04:50:27;0.80;99.90
59146;DHT22;44928;53.074;6.646;2022-12-11T04:52:54;0.80;99.90
59146;DHT22;44928;53.074;6.646;2022-12-11T04:55:20;0.80;99.90
59146;DHT22;44928;53.074;6.646;2022-12-11T04:57:46;0.80;99.90
59146;DHT22;44928;53.074;6.646;2022-12-11T05:00:12;0.80;99.90
59146;DHT22;44928;53.074;6.646;2022-12-11T05:02:40;0.80;99.90
59146;DHT22;44928;53.074;6.646;2022-12-11T05:05:07;0.80;99.90
59146;DHT22;44928;53.074;6.646;2022-12-11T05:07:37;0.80;99.90
59146;DHT22;44928;53.074;6.646;2022-12-11T05:10:04;0.80;99.90
59146;DHT22;44928;53.074;6.646;2022-12-11T05:12:31;0.80;99.90
59146;DHT22;44928;53.074;6.646;2022-12-11T05:14:57;0.80;99.90
59146;DHT22;44928;53.074;6.646;2022-12-11T05:17:23;0.80;99.90
59146;DHT22;44928;53.074;6.646;2022-12-11T05:19:50;0.80;99.90
59146;DHT22;44928;53.074;6.646;2022-12-11T05:22:16;0.70;99.90
59146;DHT22;44928;53.074;6.646;2022-12-11T05:24:43;0.80;99.90
59146;DHT22;44928;53.074;6.646;2022-12-11T05:27:09;0.80;99.90
59146;DHT22;44928;53.074;6.646;2022-12-11T05:29:35;0.80;99.90
59146;DHT22;44928;53.074;6.646;2022-12-11T05:32:02;0.80;99.90
59146;DHT22;44928;53.074;6.646;2022-12-11T05:34:28;0.80;99.90
59146;DHT22;44928;53.074;6.646;2022-12-11T05:36:53;0.80;99.90
59146;DHT22;44928;53.074;6.646;2022-12-11T05:39:19;0.80;99.90
59146;DHT22;44928;53.074;6.646;2022-12-11T05:41:45;0.80;99.90
59146;DHT22;44928;53.074;6.646;2022-12-11T05:44:12;0.80;99.90
59146;DHT22;44928;53.074;6.646;2022-12-11T05:46:38;0.80;99.90
59146;DHT22;44928;53.074;6.646;2022-12-11T05:49:04;0.80;99.90
59146;DHT22;44928;53.074;6.646;2022-12-11T05:51:31;0.90;99.90
59146;DHT22;44928;53.074;6.646;2022-12-11T05:54:01;0.90;99.90
59146;DHT22;44928;53.074;6.646;2022-12-11T05:56:29;0.90;99.90
59146;DHT22;44928;53.074;6.646;2022-12-11T05:58:56;0.90;99.90
59146;DHT22;44928;53.074;6.646;2022-12-11T06:01:30;0.90;99.90
59146;DHT22;44928;53.074;6.646;2022-12-11T06:03:57;1.00;99.90
59146;DHT22;44928;53.074;6.646;2022-12-11T06:06:24;1.00;99.90
59146;DHT22;44928;53.074;6.646;2022-12-11T06:08:54;1.00;99.90
59146;DHT22;44928;53.074;6.646;2022-12-11T06:11:21;1.00;99.90
59146;DHT22;44928;53.074;6.646;2022-12-11T06:13:47;1.00;99.90
59146;DHT22;44928;53.074;6.646;2022-12-11T06:16:13;1.00;99.90
59146;DHT22;44928;53.074;6.646;2022-12-11T06:18:41;1.00;99.90
59146;DHT22;44928;53.074;6.646;2022-12-11T06:21:28;1.00;99.90
59146;DHT22;44928;53.074;6.646;2022-12-11T06:23:56;1.10;99.90
59146;DHT22;44928;53.074;6.646;2022-12-11T06:26:22;1.10;99.90
59146;DHT22;44928;53.074;6.646;2022-12-11T06:28:49;1.10;99.90
59146;DHT22;44928;53.074;6.646;2022-12-11T06:31:15;1.10;99.90
59146;DHT22;44928;53.074;6.646;2022-12-11T06:33:41;1.10;99.90
59146;DHT22;44928;53.074;6.646;2022-12-11T06:36:09;1.10;99.90
59146;DHT22;44928;53.074;6.646;2022-12-11T06:38:35;1.10;99.90
59146;DHT22;44928;53.074;6.646;2022-12-11T06:41:03;1.10;99.90
59146;DHT22;44928;53.074;6.646;2022-12-11T06:43:33;1.10;99.90
59146;DHT22;44928;53.074;6.646;2022-12-11T06:46:02;1.10;99.90
59146;DHT22;44928;53.074;6.646;2022-12-11T06:48:27;1.10;99.90
59146;DHT22;44928;53.074;6.646;2022-12-11T06:50:53;1.10;99.90
59146;DHT22;44928;53.074;6.646;2022-12-11T06:53:19;1.10;99.90
59146;DHT22;44928;53.074;6.646;2022-12-11T06:55:45;1.10;99.90
59146;DHT22;44928;53.074;6.646;2022-12-11T06:58:10;1.10;99.90
59146;DHT22;44928;53.074;6.646;2022-12-11T07:00:37;1.10;99.90
59146;DHT22;44928;53.074;6.646;2022-12-11T07:03:04;1.10;99.90
59146;DHT22;44928;53.074;6.646;2022-12-11T07:05:31;1.10;99.90
59146;DHT22;44928;53.074;6.646;2022-12-11T07:07:57;1.20;99.90
59146;DHT22;44928;53.074;6.646;2022-12-11T07:10:23;1.10;99.90
59146;DHT22;44928;53.074;6.646;2022-12-11T07:12:51;1.10;99.90
59146;DHT22;44928;53.074;6.646;2022-12-11T07:15:17;1.10;99.90
59146;DHT22;44928;53.074;6.646;2022-12-11T07:17:42;1.20;99.90
59146;DHT22;44928;53.074;6.646;2022-12-11T07:20:08;1.20;99.90
59146;DHT22;44928;53.074;6.646;2022-12-11T07:22:36;1.20;99.90
59146;DHT22;44928;53.074;6.646;2022-12-11T07:25:02;1.20;99.90
59146;DHT22;44928;53.074;6.646;2022-12-11T07:27:28;1.20;99.90
59146;DHT22;44928;53.074;6.646;2022-12-11T07:29:53;1.20;99.90
59146;DHT22;44928;53.074;6.646;2022-12-11T07:32:20;1.20;99.90
59146;DHT22;44928;53.074;6.646;2022-12-11T07:34:49;1.20;99.90
59146;DHT22;44928;53.074;6.646;2022-12-11T07:37:15;1.20;99.90
59146;DHT22;44928;53.074;6.646;2022-12-11T07:39:41;1.20;99.90
59146;DHT22;44928;53.074;6.646;2022-12-11T07:42:07;1.20;99.90
59146;DHT22;44928;53.074;6.646;2022-12-11T07:44:33;1.20;99.90
59146;DHT22;44928;53.074;6.646;2022-12-11T07:46:59;1.20;99.90
59146;DHT22;44928;53.074;6.646;2022-12-11T07:49:24;1.20;99.90
59146;DHT22;44928;53.074;6.646;2022-12-11T07:51:50;1.20;99.90
59146;DHT22;44928;53.074;6.646;2022-12-11T07:54:16;1.20;99.90
59146;DHT22;44928;53.074;6.646;2022-12-11T07:56:46;1.20;99.90
59146;DHT22;44928;53.074;6.646;2022-12-11T07:59:12;1.20;99.90
59146;DHT22;44928;53.074;6.646;2022-12-11T08:01:39;1.20;99.90
59146;DHT22;44928;53.074;6.646;2022-12-11T08:04:08;1.20;99.90
59146;DHT22;44928;53.074;6.646;2022-12-11T08:06:37;1.20;99.90
59146;DHT22;44928;53.074;6.646;2022-12-11T08:09:05;1.20;99.90
59146;DHT22;44928;53.074;6.646;2022-12-11T08:11:32;1.20;99.90
59146;DHT22;44928;53.074;6.646;2022-12-11T08:13:59;1.20;99.90
59146;DHT22;44928;53.074;6.646;2022-12-11T08:16:25;1.20;99.90
59146;DHT22;44928;53.074;6.646;2022-12-11T08:18:51;1.20;99.90
59146;DHT22;44928;53.074;6.646;2022-12-11T08:21:22;1.20;99.90
59146;DHT22;44928;53.074;6.646;2022-12-11T08:23:49;1.20;99.90
59146;DHT22;44928;53.074;6.646;2022-12-11T08:26:18;1.10;99.90
59146;DHT22;44928;53.074;6.646;2022-12-11T08:28:44;1.10;99.90
59146;DHT22;44928;53.074;6.646;2022-12-11T08:31:12;1.20;99.90
59146;DHT22;44928;53.074;6.646;2022-12-11T08:33:39;1.20;99.90
59146;DHT22;44928;53.074;6.646;2022-12-11T08:36:07;1.20;99.90
59146;DHT22;44928;53.074;6.646;2022-12-11T08:38:33;1.20;99.90
59146;DHT22;44928;53.074;6.646;2022-12-11T08:41:12;1.20;99.90
59146;DHT22;44928;53.074;6.646;2022-12-11T08:43:38;1.20;99.90
59146;DHT22;44928;53.074;6.646;2022-12-11T08:46:05;1.20;99.90
59146;DHT22;44928;53.074;6.646;2022-12-11T08:48:32;1.20;99.90
59146;DHT22;44928;53.074;6.646;2022-12-11T08:51:01;1.20;99.90
59146;DHT22;44928;53.074;6.646;2022-12-11T08:53:28;1.20;99.90
59146;DHT22;44928;53.074;6.646;2022-12-11T08:56:03;1.20;99.90
59146;DHT22;44928;53.074;6.646;2022-12-11T08:58:29;1.20;99.90
59146;DHT22;44928;53.074;6.646;2022-12-11T09:00:55;1.20;99.90
59146;DHT22;44928;53.074;6.646;2022-12-11T09:03:21;1.20;99.90
59146;DHT22;44928;53.074;6.646;2022-12-11T09:05:48;1.30;99.90
59146;DHT22;44928;53.074;6.646;2022-12-11T09:08:13;1.20;99.90
59146;DHT22;44928;53.074;6.646;2022-12-11T09:10:39;1.20;99.90
59146;DHT22;44928;53.074;6.646;2022-12-11T09:13:06;1.20;99.90
59146;DHT22;44928;53.074;6.646;2022-12-11T09:15:32;1.30;99.90
59146;DHT22;44928;53.074;6.646;2022-12-11T09:17:58;1.30;99.90
59146;DHT22;44928;53.074;6.646;2022-12-11T09:20:23;1.30;99.90
59146;DHT22;44928;53.074;6.646;2022-12-11T09:22:49;1.30;99.90
59146;DHT22;44928;53.074;6.646;2022-12-11T09:25:15;1.30;99.90
59146;DHT22;44928;53.074;6.646;2022-12-11T09:27:41;1.30;99.90
59146;DHT22;44928;53.074;6.646;2022-12-11T09:30:07;1.30;99.90
59146;DHT22;44928;53.074;6.646;2022-12-11T09:32:33;1.30;99.90
59146;DHT22;44928;53.074;6.646;2022-12-11T09:34:59;1.30;99.90
59146;DHT22;44928;53.074;6.646;2022-12-11T09:37:25;1.30;99.90
59146;DHT22;44928;53.074;6.646;2022-12-11T09:39:50;1.30;99.90
59146;DHT22;44928;53.074;6.646;2022-12-11T09:45:00;1.40;99.90
59146;DHT22;44928;53.074;6.646;2022-12-11T09:47:31;1.40;99.90
59146;DHT22;44928;53.074;6.646;2022-12-11T10:01:11;1.40;99.90
59146;DHT22;44928;53.074;6.646;2022-12-11T10:12:00;1.40;99.90
59146;DHT22;44928;53.074;6.646;2022-12-11T10:17:31;1.40;99.90
59146;DHT22;44928;53.074;6.646;2022-12-11T10:20:06;1.40;99.90
59146;DHT22;44928;53.074;6.646;2022-12-11T10:22:39;1.40;99.90
59146;DHT22;44928;53.074;6.646;2022-12-11T10:25:07;1.50;99.90
59146;DHT22;44928;53.074;6.646;2022-12-11T10:27:39;1.50;99.90
59146;DHT22;44928;53.074;6.646;2022-12-11T10:30:24;1.50;99.90
59146;DHT22;44928;53.074;6.646;2022-12-11T10:32:52;1.50;99.90
59146;DHT22;44928;53.074;6.646;2022-12-11T10:38:14;1.50;99.90
59146;DHT22;44928;53.074;6.646;2022-12-11T10:40:44;1.50;99.90
59146;DHT22;44928;53.074;6.646;2022-12-11T10:43:10;1.50;99.90
59146;DHT22;44928;53.074;6.646;2022-12-11T10:45:36;1.50;99.90
59146;DHT22;44928;53.074;6.646;2022-12-11T10:48:08;1.50;99.90
59146;DHT22;44928;53.074;6.646;2022-12-11T10:50:35;1.50;99.90
59146;DHT22;44928;53.074;6.646;2022-12-11T10:53:01;1.50;99.90
59146;DHT22;44928;53.074;6.646;2022-12-11T10:55:32;1.50;99.90
59146;DHT22;44928;53.074;6.646;2022-12-11T10:58:04;1.50;99.90
59146;DHT22;44928;53.074;6.646;2022-12-11T11:00:40;1.50;99.90
59146;DHT22;44928;53.074;6.646;2022-12-11T11:03:26;1.50;99.90
59146;DHT22;44928;53.074;6.646;2022-12-11T11:06:14;1.50;99.90
59146;DHT22;44928;53.074;6.646;2022-12-11T11:08:45;1.60;99.90
59146;DHT22;44928;53.074;6.646;2022-12-11T11:11:32;1.60;99.90
59146;DHT22;44928;53.074;6.646;2022-12-11T11:14:20;1.50;99.90
59146;DHT22;44928;53.074;6.646;2022-12-11T11:16:49;1.50;99.90
59146;DHT22;44928;53.074;6.646;2022-12-11T11:19:28;1.50;99.90
59146;DHT22;44928;53.074;6.646;2022-12-11T11:22:01;1.60;99.90
59146;DHT22;44928;53.074;6.646;2022-12-11T11:26:53;1.60;99.90
59146;DHT22;44928;53.074;6.646;2022-12-11T11:29:26;1.60;99.90
59146;DHT22;44928;53.074;6.646;2022-12-11T11:31:53;1.60;99.90
59146;DHT22;44928;53.074;6.646;2022-12-11T11:34:19;1.60;99.90
59146;DHT22;44928;53.074;6.646;2022-12-11T11:36:56;1.60;99.90
59146;DHT22;44928;53.074;6.646;2022-12-11T11:39:34;1.60;99.90
59146;DHT22;44928;53.074;6.646;2022-12-11T11:42:16;1.60;99.90
59146;DHT22;44928;53.074;6.646;2022-12-11T11:45:33;1.60;99.90
59146;DHT22;44928;53.074;6.646;2022-12-11T11:50:45;1.60;99.90
59146;DHT22;44928;53.074;6.646;2022-12-11T11:53:30;1.60;99.90
59146;DHT22;44928;53.074;6.646;2022-12-11T11:58:39;1.60;99.90
59146;DHT22;44928;53.074;6.646;2022-12-11T12:01:14;1.60;99.90
59146;DHT22;44928;53.074;6.646;2022-12-11T12:03:41;1.60;99.90
59146;DHT22;44928;53.074;6.646;2022-12-11T12:14:15;1.60;99.90
59146;DHT22;44928;53.074;6.646;2022-12-11T12:19:40;1.60;99.90
59146;DHT22;44928;53.074;6.646;2022-12-11T12:25:13;1.60;99.90
59146;DHT22;44928;53.074;6.646;2022-12-11T12:28:15;1.60;99.90
59146;DHT22;44928;53.074;6.646;2022-12-11T12:39:12;1.70;99.90
59146;DHT22;44928;53.074;6.646;2022-12-11T12:44:18;1.70;99.90
59146;DHT22;44928;53.074;6.646;2022-12-11T12:46:58;1.70;99.90
59146;DHT22;44928;53.074;6.646;2022-12-11T12:49:36;1.70;99.90
59146;DHT22;44928;53.074;6.646;2022-12-11T12:52:04;1.70;99.90
59146;DHT22;44928;53.074;6.646;2022-12-11T12:54:32;1.70;99.90
59146;DHT22;44928;53.074;6.646;2022-12-11T12:57:01;1.70;99.90
59146;DHT22;44928;53.074;6.646;2022-12-11T12:59:28;1.80;99.90
59146;DHT22;44928;53.074;6.646;2022-12-11T13:01:57;1.80;99.90
59146;DHT22;44928;53.074;6.646;2022-12-11T13:07:17;1.80;99.90
59146;DHT22;44928;53.074;6.646;2022-12-11T13:10:04;1.80;99.90
59146;DHT22;44928;53.074;6.646;2022-12-11T13:12:40;1.80;99.90
59146;DHT22;44928;53.074;6.646;2022-12-11T13:17:48;1.80;99.90
59146;DHT22;44928;53.074;6.646;2022-12-11T13:20:19;1.80;99.90
59146;DHT22;44928;53.074;6.646;2022-12-11T13:25:51;1.80;99.90
59146;DHT22;44928;53.074;6.646;2022-12-11T13:28:24;1.80;99.90
59146;DHT22;44928;53.074;6.646;2022-12-11T13:31:05;1.80;99.90
59146;DHT22;44928;53.074;6.646;2022-12-11T13:33:36;1.80;99.90
59146;DHT22;44928;53.074;6.646;2022-12-11T13:38:36;1.70;99.90
59146;DHT22;44928;53.074;6.646;2022-12-11T13:41:09;1.80;99.90
59146;DHT22;44928;53.074;6.646;2022-12-11T13:43:35;1.80;99.90
59146;DHT22;44928;53.074;6.646;2022-12-11T13:46:05;1.80;99.90
59146;DHT22;44928;53.074;6.646;2022-12-11T13:51:01;1.70;99.90
59146;DHT22;44928;53.074;6.646;2022-12-11T13:53:27;1.80;99.90
59146;DHT22;44928;53.074;6.646;2022-12-11T13:56:03;1.80;99.90
59146;DHT22;44928;53.074;6.646;2022-12-11T13:58:33;1.80;99.90
59146;DHT22;44928;53.074;6.646;2022-12-11T14:01:03;1.80;99.90
59146;DHT22;44928;53.074;6.646;2022-12-11T14:03:31;1.80;99.90
59146;DHT22;44928;53.074;6.646;2022-12-11T14:05:58;1.80;99.90
59146;DHT22;44928;53.074;6.646;2022-12-11T14:08:33;1.80;99.90
59146;DHT22;44928;53.074;6.646;2022-12-11T14:11:00;1.70;99.90
59146;DHT22;44928;53.074;6.646;2022-12-11T14:13:32;1.80;99.90
59146;DHT22;44928;53.074;6.646;2022-12-11T14:15:58;1.70;99.90
59146;DHT22;44928;53.074;6.646;2022-12-11T14:18:27;1.70;99.90
59146;DHT22;44928;53.074;6.646;2022-12-11T14:20:59;1.70;99.90
59146;DHT22;44928;53.074;6.646;2022-12-11T14:23:27;1.70;99.90
59146;DHT22;44928;53.074;6.646;2022-12-11T14:26:00;1.80;99.90
59146;DHT22;44928;53.074;6.646;2022-12-11T14:28:29;1.80;99.90
59146;DHT22;44928;53.074;6.646;2022-12-11T14:30:57;1.80;99.90
59146;DHT22;44928;53.074;6.646;2022-12-11T14:33:36;1.70;99.90
59146;DHT22;44928;53.074;6.646;2022-12-11T14:36:03;1.70;99.90
59146;DHT22;44928;53.074;6.646;2022-12-11T14:38:42;1.70;99.90
59146;DHT22;44928;53.074;6.646;2022-12-11T14:41:12;1.70;99.90
59146;DHT22;44928;53.074;6.646;2022-12-11T14:43:44;1.70;99.90
59146;DHT22;44928;53.074;6.646;2022-12-11T14:46:18;1.70;99.90
59146;DHT22;44928;53.074;6.646;2022-12-11T14:49:00;1.70;99.90
59146;DHT22;44928;53.074;6.646;2022-12-11T14:51:29;1.70;99.90
59146;DHT22;44928;53.074;6.646;2022-12-11T14:53:56;1.70;99.90
59146;DHT22;44928;53.074;6.646;2022-12-11T14:56:25;1.70;99.90
59146;DHT22;44928;53.074;6.646;2022-12-11T14:59:01;1.70;99.90
59146;DHT22;44928;53.074;6.646;2022-12-11T15:01:33;1.70;99.90
59146;DHT22;44928;53.074;6.646;2022-12-11T15:04:14;1.70;99.90
59146;DHT22;44928;53.074;6.646;2022-12-11T15:06:49;1.70;99.90
59146;DHT22;44928;53.074;6.646;2022-12-11T15:11:52;1.70;99.90
59146;DHT22;44928;53.074;6.646;2022-12-11T15:14:20;1.70;99.90
59146;DHT22;44928;53.074;6.646;2022-12-11T15:16:48;1.70;99.90
59146;DHT22;44928;53.074;6.646;2022-12-11T15:19:33;1.70;99.90
59146;DHT22;44928;53.074;6.646;2022-12-11T15:22:04;1.70;99.90
59146;DHT22;44928;53.074;6.646;2022-12-11T15:24:40;1.70;99.90
59146;DHT22;44928;53.074;6.646;2022-12-11T15:27:37;1.70;99.90
59146;DHT22;44928;53.074;6.646;2022-12-11T15:33:20;1.70;99.90
59146;DHT22;44928;53.074;6.646;2022-12-11T15:35:57;1.60;99.90
59146;DHT22;44928;53.074;6.646;2022-12-11T15:38:27;1.60;99.90
59146;DHT22;44928;53.074;6.646;2022-12-11T15:40:53;1.60;99.90
59146;DHT22;44928;53.074;6.646;2022-12-11T15:43:18;1.60;99.90
59146;DHT22;44928;53.074;6.646;2022-12-11T15:45:44;1.60;99.90
59146;DHT22;44928;53.074;6.646;2022-12-11T15:48:10;1.60;99.90
59146;DHT22;44928;53.074;6.646;2022-12-11T15:50:36;1.60;99.90
59146;DHT22;44928;53.074;6.646;2022-12-11T15:53:02;1.60;99.90
59146;DHT22;44928;53.074;6.646;2022-12-11T15:55:28;1.60;99.90
59146;DHT22;44928;53.074;6.646;2022-12-11T15:58:05;1.60;99.90
59146;DHT22;44928;53.074;6.646;2022-12-11T16:00:32;1.70;99.90
59146;DHT22;44928;53.074;6.646;2022-12-11T16:02:58;1.60;99.90
59146;DHT22;44928;53.074;6.646;2022-12-11T16:05:25;1.60;99.90
59146;DHT22;44928;53.074;6.646;2022-12-11T16:07:51;1.60;99.90
59146;DHT22;44928;53.074;6.646;2022-12-11T16:10:19;1.60;99.90
59146;DHT22;44928;53.074;6.646;2022-12-11T16:12:45;1.60;99.90
59146;DHT22;44928;53.074;6.646;2022-12-11T16:15:13;1.70;99.90
59146;DHT22;44928;53.074;6.646;2022-12-11T16:17:40;1.60;99.90
59146;DHT22;44928;53.074;6.646;2022-12-11T16:20:07;1.60;99.90
59146;DHT22;44928;53.074;6.646;2022-12-11T16:22:33;1.60;99.90
59146;DHT22;44928;53.074;6.646;2022-12-11T16:24:59;1.60;99.90
59146;DHT22;44928;53.074;6.646;2022-12-11T16:27:25;1.60;99.90
59146;DHT22;44928;53.074;6.646;2022-12-11T16:29:51;1.60;99.90
59146;DHT22;44928;53.074;6.646;2022-12-11T16:32:17;1.60;99.90
59146;DHT22;44928;53.074;6.646;2022-12-11T16:34:43;1.60;99.90
59146;DHT22;44928;53.074;6.646;2022-12-11T16:37:09;1.60;99.90
59146;DHT22;44928;53.074;6.646;2022-12-11T16:39:36;1.60;99.90
59146;DHT22;44928;53.074;6.646;2022-12-11T16:42:04;1.60;99.90
59146;DHT22;44928;53.074;6.646;2022-12-11T16:44:30;1.60;99.90
59146;DHT22;44928;53.074;6.646;2022-12-11T16:46:56;1.50;99.90
59146;DHT22;44928;53.074;6.646;2022-12-11T16:49:22;1.50;99.90
59146;DHT22;44928;53.074;6.646;2022-12-11T16:51:48;1.50;99.90
59146;DHT22;44928;53.074;6.646;2022-12-11T16:54:14;1.50;99.90
59146;DHT22;44928;53.074;6.646;2022-12-11T16:56:41;1.50;99.90
59146;DHT22;44928;53.074;6.646;2022-12-11T16:59:07;1.50;99.90
59146;DHT22;44928;53.074;6.646;2022-12-11T17:01:33;1.50;99.90
59146;DHT22;44928;53.074;6.646;2022-12-11T17:03:59;1.50;99.90
59146;DHT22;44928;53.074;6.646;2022-12-11T17:06:27;1.50;99.90
59146;DHT22;44928;53.074;6.646;2022-12-11T17:08:54;1.50;99.90
59146;DHT22;44928;53.074;6.646;2022-12-11T17:11:21;1.50;99.90
59146;DHT22;44928;53.074;6.646;2022-12-11T17:13:57;1.50;99.90
59146;DHT22;44928;53.074;6.646;2022-12-11T17:16:24;1.50;99.90
59146;DHT22;44928;53.074;6.646;2022-12-11T17:18:54;1.50;99.90
59146;DHT22;44928;53.074;6.646;2022-12-11T17:21:21;1.50;99.90
59146;DHT22;44928;53.074;6.646;2022-12-11T17:23:47;1.50;99.90
59146;DHT22;44928;53.074;6.646;2022-12-11T17:26:14;1.50;99.90